createdAt,value
2023-04-26T00:00:53.234Z,15.30
2023-04-26T00:02:14.257Z,9.45
2023-04-26T00:03:35.199Z,17.85
2023-04-26T00:04:56.246Z,16.33
2023-04-26T00:06:17.051Z,11.43
2023-04-26T00:07:37.834Z,9.02
2023-04-26T00:08:58.654Z,14.88
2023-04-26T00:10:19.576Z,10.93
2023-04-26T00:11:41.726Z,11.88
2023-04-26T00:13:02.386Z,11.43
2023-04-26T00:14:23.277Z,14.18
2023-04-26T00:15:43.821Z,10.57
2023-04-26T00:17:04.669Z,16.17
2023-04-26T00:18:25.696Z,12.05
2023-04-26T00:19:46.537Z,10.40
2023-04-26T00:21:07.366Z,11.43
2023-04-26T00:22:28.053Z,9.35
2023-04-26T00:23:48.791Z,15.05
2023-04-26T00:25:10.596Z,11.80
2023-04-26T00:26:31.532Z,12.23
2023-04-26T00:27:53.981Z,10.57
2023-04-26T00:29:14.819Z,18.95
2023-04-26T00:30:36.229Z,14.70
2023-04-26T00:31:56.967Z,12.68
2023-04-26T00:33:17.693Z,15.93
2023-04-26T00:34:38.679Z,10.30
2023-04-26T00:35:59.086Z,11.27
2023-04-26T00:37:19.859Z,9.30
2023-04-26T00:38:40.801Z,10.02
2023-04-26T00:40:01.663Z,13.38
2023-04-26T00:41:22.333Z,13.80
2023-04-26T00:42:43.146Z,11.68
2023-04-26T00:44:05.516Z,10.98
2023-04-26T00:45:27.040Z,16.20
2023-04-26T00:48:09.300Z,12.90
2023-04-26T00:49:30.190Z,7.95
2023-04-26T00:50:51.022Z,10.38
2023-04-26T00:52:11.907Z,15.00
2023-04-26T00:54:54.576Z,10.23
2023-04-26T00:56:17.123Z,9.20
2023-04-26T00:57:37.972Z,10.52
2023-04-26T00:58:58.894Z,11.95
2023-04-26T01:00:21.364Z,7.25
2023-04-26T01:01:42.328Z,16.98
2023-04-26T01:03:03.677Z,10.07
2023-04-26T01:04:24.973Z,10.07
2023-04-26T01:05:46.280Z,16.00
2023-04-26T01:07:07.123Z,14.82
2023-04-26T01:08:28.168Z,19.10
2023-04-26T01:09:49.585Z,9.32
2023-04-26T01:11:11.525Z,11.63
2023-04-26T01:12:32.896Z,8.38
2023-04-26T01:15:14.337Z,9.75
2023-04-26T01:16:36.757Z,10.43
2023-04-26T01:17:57.356Z,13.30
2023-04-26T01:19:18.511Z,10.82
2023-04-26T01:20:39.062Z,11.18
2023-04-26T01:21:59.765Z,16.77
2023-04-26T01:23:21.997Z,10.65
2023-04-26T01:24:46.523Z,11.23
2023-04-26T01:26:07.303Z,10.68
2023-04-26T01:27:28.161Z,14.63
2023-04-26T01:28:49.165Z,12.15
2023-04-26T01:30:11.158Z,15.07
2023-04-26T01:31:31.833Z,11.32
2023-04-26T01:32:52.590Z,15.43
2023-04-26T01:34:14.209Z,12.15
2023-04-26T01:35:34.837Z,11.25
2023-04-26T01:36:55.745Z,13.60
2023-04-26T01:38:16.589Z,10.73
2023-04-26T01:39:38.976Z,17.92
2023-04-26T01:40:59.550Z,13.70
2023-04-26T01:42:20.562Z,16.98
2023-04-26T01:43:41.058Z,12.73
2023-04-26T01:45:01.889Z,10.77
2023-04-26T01:46:23.077Z,14.38
2023-04-26T01:47:43.873Z,14.98
2023-04-26T01:49:04.765Z,12.38
2023-04-26T01:50:25.608Z,13.82
2023-04-26T01:51:46.377Z,13.65
2023-04-26T01:53:07.305Z,14.52
2023-04-26T01:54:28.238Z,17.23
2023-04-26T01:55:50.436Z,18.02
2023-04-26T01:57:11.015Z,9.70
2023-04-26T01:58:32.031Z,18.00
2023-04-26T01:59:52.724Z,9.98
2023-04-26T02:01:13.581Z,11.10
2023-04-26T02:02:34.659Z,14.98
2023-04-26T02:03:58.342Z,16.02
2023-04-26T02:05:18.971Z,11.30
2023-04-26T02:06:39.775Z,15.02
2023-04-26T02:08:00.554Z,16.83
2023-04-26T02:09:21.514Z,16.75
2023-04-26T02:10:42.310Z,13.05
2023-04-26T02:12:04.426Z,13.35
2023-04-26T02:13:25.456Z,13.48
2023-04-26T02:14:46.019Z,17.48
2023-04-26T02:16:07.404Z,13.55
2023-04-26T02:17:28.339Z,11.00
2023-04-26T02:18:49.145Z,14.93
2023-04-26T02:20:11.424Z,20.33
2023-04-26T02:21:32.276Z,15.57
2023-04-26T02:22:52.989Z,16.75
2023-04-26T02:24:13.922Z,14.32
2023-04-26T02:25:34.505Z,13.73
2023-04-26T02:26:55.463Z,14.20
2023-04-26T02:28:17.509Z,17.13
2023-04-26T02:29:44.504Z,22.88
2023-04-26T02:31:05.909Z,14.18
2023-04-26T02:32:26.687Z,13.52
2023-04-26T02:33:47.640Z,18.13
2023-04-26T02:35:09.265Z,15.07
2023-04-26T02:36:30.238Z,12.73
2023-04-26T02:37:51.128Z,18.88
2023-04-26T02:39:11.675Z,11.27
2023-04-26T02:40:32.631Z,12.20
2023-04-26T02:41:53.322Z,15.40
2023-04-26T02:43:14.426Z,16.23
2023-04-26T02:44:36.856Z,17.50
2023-04-26T02:45:57.789Z,13.07
2023-04-26T02:47:18.756Z,9.57
2023-04-26T02:48:39.823Z,14.00
2023-04-26T02:50:00.846Z,18.52
2023-04-26T02:51:21.623Z,10.75
2023-04-26T02:52:42.225Z,11.88
2023-04-26T02:54:03.792Z,13.45
2023-04-26T02:55:26.241Z,15.27
2023-04-26T02:56:47.049Z,11.98
2023-04-26T02:58:07.845Z,14.25
2023-04-26T02:59:28.805Z,11.88
2023-04-26T03:00:51.387Z,18.63
2023-04-26T03:02:11.979Z,14.88
2023-04-26T03:03:33.385Z,14.48
2023-04-26T03:04:55.615Z,12.85
2023-04-26T03:06:16.137Z,14.90
2023-04-26T03:07:36.846Z,11.63
2023-04-26T03:08:57.723Z,12.43
2023-04-26T03:10:18.760Z,15.77
2023-04-26T03:11:39.308Z,14.68
2023-04-26T03:13:00.194Z,15.70
2023-04-26T03:14:20.917Z,10.93
2023-04-26T03:15:45.258Z,14.43
2023-04-26T03:17:07.154Z,13.30
2023-04-26T03:18:27.869Z,16.20
2023-04-26T03:19:48.560Z,11.82
2023-04-26T03:21:09.372Z,14.00
2023-04-26T03:22:30.125Z,12.15
2023-04-26T03:23:50.981Z,15.77
2023-04-26T03:25:11.647Z,15.40
2023-04-26T03:26:32.553Z,13.38
2023-04-26T03:27:53.090Z,14.32
2023-04-26T03:29:14.402Z,11.70
2023-04-26T03:30:34.970Z,16.30
2023-04-26T03:31:57.787Z,12.30
2023-04-26T03:33:19.847Z,11.77
2023-04-26T03:34:40.577Z,16.35
2023-04-26T03:36:01.462Z,10.85
2023-04-26T03:37:22.249Z,12.50
2023-04-26T03:38:43.123Z,14.93
2023-04-26T03:40:05.097Z,12.95
2023-04-26T03:41:25.716Z,10.43
2023-04-26T03:42:46.569Z,13.27
2023-04-26T03:44:07.353Z,12.10
2023-04-26T03:45:28.334Z,12.40
2023-04-26T03:46:49.218Z,13.80
2023-04-26T03:48:10.095Z,16.30
2023-04-26T03:49:32.182Z,13.77
2023-04-26T03:50:53.110Z,10.65
2023-04-26T03:52:13.811Z,11.95
2023-04-26T03:53:34.570Z,14.32
2023-04-26T03:54:55.604Z,12.50
2023-04-26T03:56:16.403Z,16.40
2023-04-26T03:57:37.477Z,13.73
2023-04-26T03:58:58.349Z,10.27
2023-04-26T04:00:19.287Z,12.25
2023-04-26T04:01:40.134Z,12.27
2023-04-26T04:03:00.963Z,11.57
2023-04-26T04:04:21.752Z,18.90
2023-04-26T04:05:44.001Z,21.52
2023-04-26T04:07:04.843Z,17.58
2023-04-26T04:08:25.613Z,14.18
2023-04-26T04:09:46.274Z,16.45
2023-04-26T04:11:07.039Z,17.43
2023-04-26T04:12:28.016Z,13.73
2023-04-26T04:13:49.096Z,14.30
2023-04-26T04:15:10.708Z,15.38
2023-04-26T04:16:31.332Z,17.08
2023-04-26T04:17:51.834Z,19.23
2023-04-26T04:19:12.556Z,19.83
2023-04-26T04:20:33.655Z,14.63
2023-04-26T04:21:56.044Z,17.23
2023-04-26T04:23:16.621Z,16.02
2023-04-26T04:24:37.921Z,17.75
2023-04-26T04:25:58.505Z,17.73
2023-04-26T04:27:19.576Z,15.82
2023-04-26T04:28:40.526Z,16.10
2023-04-26T04:30:01.127Z,15.40
2023-04-26T04:31:21.631Z,17.70
2023-04-26T04:32:42.373Z,19.80
2023-04-26T04:34:03.474Z,23.73
2023-04-26T04:35:24.030Z,15.55
2023-04-26T04:36:44.817Z,14.85
2023-04-26T04:38:07.110Z,15.23
2023-04-26T04:39:27.767Z,15.45
2023-04-26T04:40:48.603Z,16.73
2023-04-26T04:42:09.208Z,17.10
2023-04-26T04:43:30.067Z,15.68
2023-04-26T04:44:50.970Z,14.48
2023-04-26T04:46:12.902Z,16.13
2023-04-26T04:47:33.788Z,18.35
2023-04-26T04:48:54.841Z,22.77
2023-04-26T04:51:36.717Z,22.67
2023-04-26T04:52:57.128Z,22.98
2023-04-26T04:54:19.538Z,16.70
2023-04-26T04:55:40.273Z,16.15
2023-04-26T04:57:01.076Z,19.13
2023-04-26T04:58:21.868Z,18.92
2023-04-26T04:59:42.687Z,17.47
2023-04-26T05:01:03.519Z,28.55
2023-04-26T05:02:24.532Z,20.10
2023-04-26T05:03:45.757Z,16.65
2023-04-26T05:05:07.879Z,21.23
2023-04-26T05:06:28.775Z,18.25
2023-04-26T05:07:49.461Z,17.25
2023-04-26T05:09:10.223Z,13.57
2023-04-26T05:10:32.408Z,18.35
2023-04-26T05:11:53.010Z,17.25
2023-04-26T05:13:13.951Z,20.63
2023-04-26T05:14:34.777Z,14.25
2023-04-26T05:15:55.887Z,16.25
2023-04-26T05:17:16.258Z,21.15
2023-04-26T05:18:37.152Z,12.90
2023-04-26T05:19:58.240Z,19.77
2023-04-26T05:21:18.642Z,18.13
2023-04-26T05:22:39.295Z,19.87
2023-04-26T05:24:00.136Z,17.35
2023-04-26T05:25:22.432Z,18.90
2023-04-26T05:26:45.273Z,22.20
2023-04-26T05:28:05.764Z,19.05
2023-04-26T05:29:29.761Z,19.33
2023-04-26T05:30:50.610Z,17.23
2023-04-26T05:32:11.404Z,17.05
2023-04-26T05:33:32.387Z,13.80
2023-04-26T05:34:53.190Z,35.55
2023-04-26T05:36:13.977Z,16.50
2023-04-26T05:37:35.243Z,17.85
2023-04-26T05:38:55.849Z,18.38
2023-04-26T05:40:16.784Z,22.55
2023-04-26T05:41:37.629Z,22.42
2023-04-26T05:42:59.804Z,18.95
2023-04-26T05:44:20.252Z,17.88
2023-04-26T05:45:49.785Z,18.13
2023-04-26T05:47:10.750Z,16.50
2023-04-26T05:48:31.682Z,18.92
2023-04-26T05:49:52.674Z,17.20
2023-04-26T05:51:13.451Z,15.45
2023-04-26T05:52:34.319Z,17.23
2023-04-26T05:53:55.194Z,21.13
2023-04-26T05:55:16.055Z,15.13
2023-04-26T05:56:37.160Z,16.27
2023-04-26T05:58:02.946Z,20.23
2023-04-26T05:59:23.442Z,15.60
2023-04-26T06:00:44.178Z,20.98
2023-04-26T06:02:05.060Z,16.60
2023-04-26T06:03:26.345Z,17.77
2023-04-26T06:04:47.408Z,18.88
2023-04-26T06:06:08.238Z,19.10
2023-04-26T06:07:29.003Z,20.67
2023-04-26T06:08:49.828Z,26.45
2023-04-26T06:10:11.348Z,17.75
2023-04-26T06:11:32.060Z,16.65
2023-04-26T06:12:53.641Z,17.58
2023-04-26T06:14:29.426Z,11.80
2023-04-26T06:15:50.917Z,19.48
2023-04-26T06:17:11.968Z,20.02
2023-04-26T06:18:32.750Z,16.60
2023-04-26T06:19:53.831Z,18.08
2023-04-26T06:21:14.471Z,16.92
2023-04-26T06:22:34.967Z,21.63
2023-04-26T06:23:55.981Z,16.73
2023-04-26T06:25:17.076Z,16.00
2023-04-26T06:26:37.859Z,17.35
2023-04-26T06:27:58.560Z,18.37
2023-04-26T06:29:21.309Z,16.38
2023-04-26T06:30:42.966Z,16.60
2023-04-26T06:32:03.489Z,17.42
2023-04-26T06:33:24.610Z,20.88
2023-04-26T06:34:45.624Z,17.02
2023-04-26T06:36:10.981Z,15.10
2023-04-26T06:37:32.004Z,17.25
2023-04-26T06:38:52.719Z,16.65
2023-04-26T06:40:13.957Z,17.00
2023-04-26T06:41:34.770Z,18.20
2023-04-26T06:42:58.531Z,21.90
2023-04-26T06:44:20.365Z,14.05
2023-04-26T06:45:42.195Z,12.48
2023-04-26T06:47:04.452Z,17.67
2023-04-26T06:48:25.572Z,15.57
2023-04-26T06:49:46.216Z,20.42
2023-04-26T06:51:07.487Z,15.48
2023-04-26T06:52:28.390Z,14.30
2023-04-26T06:53:49.617Z,11.88
2023-04-26T06:55:10.990Z,16.17
2023-04-26T06:56:31.678Z,15.98
2023-04-26T06:57:52.691Z,13.77
2023-04-26T06:59:13.591Z,8.50
2023-04-26T07:00:35.692Z,16.45
2023-04-26T07:01:56.296Z,12.15
2023-04-26T07:03:17.041Z,11.52
2023-04-26T07:04:38.180Z,13.02
2023-04-26T07:05:59.254Z,12.38
2023-04-26T07:07:20.176Z,11.30
2023-04-26T07:08:40.846Z,17.75
2023-04-26T07:10:01.760Z,13.40
2023-04-26T07:11:24.669Z,11.52
2023-04-26T07:12:47.467Z,9.88
2023-04-26T07:14:08.063Z,12.60
2023-04-26T07:15:29.520Z,11.88
2023-04-26T07:16:51.479Z,9.23
2023-04-26T07:18:12.357Z,9.27
2023-04-26T07:19:33.591Z,11.38
2023-04-26T07:20:53.905Z,11.27
2023-04-26T07:22:14.934Z,11.52
2023-04-26T07:23:35.969Z,10.15
2023-04-26T07:24:56.648Z,10.43
2023-04-26T07:26:17.478Z,6.65
2023-04-26T07:27:38.415Z,8.35
2023-04-26T07:28:59.380Z,16.65
2023-04-26T07:30:20.381Z,8.15
2023-04-26T07:31:41.554Z,7.18
2023-04-26T07:33:04.009Z,7.18
2023-04-26T07:34:24.929Z,7.25
2023-04-26T07:35:45.612Z,8.63
2023-04-26T07:37:06.370Z,7.03
2023-04-26T07:38:27.642Z,7.75
2023-04-26T07:39:48.788Z,8.80
2023-04-26T07:41:09.627Z,7.10
2023-04-26T07:42:30.480Z,8.00
2023-04-26T07:43:51.436Z,8.75
2023-04-26T07:45:13.132Z,6.05
2023-04-26T07:46:33.789Z,9.93
2023-04-26T07:47:55.679Z,4.90
2023-04-26T07:49:17.755Z,5.90
2023-04-26T07:50:38.735Z,7.72
2023-04-26T07:51:59.526Z,5.35
2023-04-26T07:53:20.410Z,6.78
2023-04-26T07:54:41.346Z,5.18
2023-04-26T07:56:04.359Z,4.95
2023-04-26T07:57:24.873Z,6.78
2023-04-26T07:58:45.681Z,7.72
2023-04-26T08:00:08.855Z,6.05
2023-04-26T08:01:29.353Z,10.88
2023-04-26T08:02:50.356Z,4.32
2023-04-26T08:04:11.618Z,6.15
2023-04-26T08:05:34.289Z,6.47
2023-04-26T08:06:57.047Z,5.68
2023-04-26T08:08:18.937Z,10.93
2023-04-26T08:09:40.044Z,5.93
2023-04-26T08:11:01.205Z,5.65
2023-04-26T08:12:21.744Z,7.55
2023-04-26T08:13:42.576Z,5.20
2023-04-26T08:15:04.078Z,4.00
2023-04-26T08:16:24.741Z,5.90
2023-04-26T08:17:45.910Z,3.45
2023-04-26T08:19:06.892Z,7.38
2023-04-26T08:20:27.877Z,6.82
2023-04-26T08:21:49.719Z,8.25
2023-04-26T08:23:10.546Z,4.25
2023-04-26T08:24:31.653Z,6.53
2023-04-26T08:25:52.496Z,5.63
2023-04-26T08:27:13.492Z,10.60
2023-04-26T08:28:34.206Z,7.80
2023-04-26T08:29:54.949Z,9.98
2023-04-26T08:31:17.580Z,6.07
2023-04-26T08:32:38.847Z,9.77
2023-04-26T08:33:59.843Z,8.55
2023-04-26T08:35:20.489Z,8.57
2023-04-26T08:36:41.652Z,6.00
2023-04-26T08:38:04.073Z,6.85
2023-04-26T08:39:24.794Z,7.63
2023-04-26T08:40:47.253Z,7.75
2023-04-26T08:42:14.807Z,7.50
2023-04-26T08:43:38.475Z,7.50
2023-04-26T08:45:01.756Z,6.78
2023-04-26T08:46:24.687Z,6.13
2023-04-26T08:47:49.035Z,7.20
2023-04-26T08:49:35.575Z,6.25
2023-04-26T08:50:56.604Z,11.98
2023-04-26T08:52:17.612Z,8.80
2023-04-26T08:53:40.108Z,5.28
2023-04-26T08:55:01.225Z,6.65
2023-04-26T08:57:46.336Z,7.22
2023-04-26T08:59:07.244Z,7.07
2023-04-26T09:00:28.203Z,8.05
2023-04-26T09:01:49.475Z,4.18
2023-04-26T09:03:10.711Z,4.78
2023-04-26T09:04:31.825Z,9.35
2023-04-26T09:05:53.576Z,7.05
2023-04-26T09:07:21.883Z,6.95
2023-04-26T09:08:45.479Z,11.27
2023-04-26T09:10:07.680Z,11.43
2023-04-26T09:11:29.500Z,8.02
2023-04-26T09:12:52.419Z,7.45
2023-04-26T09:14:13.108Z,8.00
2023-04-26T09:15:34.018Z,6.80
2023-04-26T09:16:57.992Z,8.52
2023-04-26T09:18:21.304Z,5.57
2023-04-26T09:19:42.311Z,12.35
2023-04-26T09:21:06.575Z,9.73
2023-04-26T09:22:35.417Z,11.13
2023-04-26T09:24:01.415Z,8.75
2023-04-26T09:25:30.067Z,9.73
2023-04-26T09:27:01.892Z,8.65
2023-04-26T09:28:24.162Z,8.75
2023-04-26T09:29:59.462Z,10.60
2023-04-26T09:31:40.230Z,7.15
2023-04-26T09:33:02.883Z,7.77
2023-04-26T09:34:23.559Z,9.40
2023-04-26T09:35:44.765Z,12.95
2023-04-26T09:37:05.401Z,7.63
2023-04-26T09:38:26.371Z,17.02
2023-04-26T09:39:51.380Z,5.40
2023-04-26T09:41:12.027Z,11.77
2023-04-26T09:42:35.502Z,9.30
2023-04-26T09:43:59.250Z,10.98
2023-04-26T09:45:20.343Z,5.65
2023-04-26T09:46:41.048Z,8.77
2023-04-26T09:48:20.253Z,6.07
2023-04-26T09:49:46.214Z,8.73
2023-04-26T09:51:10.896Z,5.30
2023-04-26T09:52:31.494Z,5.18
2023-04-26T09:53:53.570Z,5.82
2023-04-26T09:55:35.024Z,10.77
2023-04-26T09:57:01.964Z,6.97
2023-04-26T09:58:22.585Z,10.75
2023-04-26T09:59:46.446Z,11.25
2023-04-26T10:01:08.752Z,5.07
2023-04-26T10:02:29.929Z,5.47
2023-04-26T10:03:52.017Z,3.58
2023-04-26T10:05:13.418Z,6.78
2023-04-26T10:06:34.068Z,4.95
2023-04-26T10:07:55.032Z,5.22
2023-04-26T10:09:15.972Z,5.65
2023-04-26T10:10:40.106Z,3.67
2023-04-26T10:12:01.363Z,5.93
2023-04-26T10:13:22.613Z,7.63
2023-04-26T10:14:44.797Z,6.13
2023-04-26T10:16:07.329Z,6.07
2023-04-26T10:17:28.282Z,5.20
2023-04-26T10:18:49.208Z,9.57
2023-04-26T10:20:13.476Z,5.80
2023-04-26T10:21:39.575Z,8.05
2023-04-26T10:23:03.629Z,8.10
2023-04-26T10:24:24.545Z,10.00
2023-04-26T10:25:46.568Z,3.10
2023-04-26T10:27:07.051Z,5.00
2023-04-26T10:29:01.719Z,7.68
2023-04-26T10:30:23.421Z,9.48
2023-04-26T10:32:09.204Z,4.65
2023-04-26T10:33:30.329Z,7.97
2023-04-26T10:35:13.018Z,9.65
2023-04-26T10:37:10.067Z,7.00
2023-04-26T10:38:31.079Z,7.88
2023-04-26T10:40:26.678Z,7.93
2023-04-26T10:41:48.753Z,8.73
2023-04-26T10:43:28.522Z,6.93
2023-04-26T10:44:50.371Z,7.53
2023-04-26T10:46:34.863Z,7.30
2023-04-26T10:48:17.924Z,11.95
2023-04-26T10:49:46.454Z,6.93
2023-04-26T10:51:10.034Z,7.22
2023-04-26T10:52:30.667Z,6.78
2023-04-26T10:54:00.698Z,6.13
2023-04-26T10:55:39.091Z,6.00
2023-04-26T10:57:01.195Z,5.68
2023-04-26T10:58:28.499Z,5.38
2023-04-26T11:00:35.158Z,7.45
2023-04-26T11:02:01.024Z,9.52
2023-04-26T11:03:23.698Z,10.68
2023-04-26T11:04:53.807Z,5.70
2023-04-26T11:06:16.086Z,10.73
2023-04-26T11:07:37.846Z,9.88
2023-04-26T11:09:00.669Z,7.40
2023-04-26T11:10:23.309Z,10.73
2023-04-26T11:11:51.984Z,5.75
2023-04-26T11:13:14.259Z,13.30
2023-04-26T11:14:34.971Z,8.93
2023-04-26T11:16:01.921Z,5.40
2023-04-26T11:17:24.266Z,5.90
2023-04-26T11:18:46.976Z,7.55
2023-04-26T11:20:15.790Z,8.38
2023-04-26T11:21:37.218Z,5.15
2023-04-26T11:24:26.027Z,13.20
2023-04-26T11:25:47.067Z,6.72
2023-04-26T11:27:09.760Z,14.05
2023-04-26T11:28:34.308Z,6.60
2023-04-26T11:29:55.819Z,5.68
2023-04-26T11:31:19.455Z,5.93
2023-04-26T11:32:40.449Z,7.15
2023-04-26T11:34:04.507Z,8.05
2023-04-26T11:35:28.595Z,8.57
2023-04-26T11:36:49.274Z,8.40
2023-04-26T11:38:10.275Z,4.65
2023-04-26T11:39:31.786Z,8.77
2023-04-26T11:40:58.693Z,6.35
2023-04-26T11:42:25.697Z,7.22
2023-04-26T11:43:47.892Z,5.05
2023-04-26T11:45:10.593Z,6.22
2023-04-26T11:46:31.732Z,9.10
2023-04-26T11:47:52.385Z,11.93
2023-04-26T11:49:14.265Z,7.22
2023-04-26T11:50:37.462Z,6.95
2023-04-26T11:51:58.637Z,8.25
2023-04-26T11:53:19.104Z,5.13
2023-04-26T11:54:40.097Z,5.90
2023-04-26T11:56:01.114Z,6.65
2023-04-26T11:57:22.056Z,6.57
2023-04-26T11:58:47.722Z,10.85
2023-04-26T12:00:11.107Z,9.70
2023-04-26T12:01:31.845Z,5.93
2023-04-26T12:02:53.766Z,7.68
2023-04-26T12:04:15.146Z,6.53
2023-04-26T12:05:35.949Z,6.40
2023-04-26T12:06:58.004Z,9.05
2023-04-26T12:08:18.494Z,6.80
2023-04-26T12:09:41.516Z,7.65
2023-04-26T12:11:03.177Z,5.28
2023-04-26T12:12:26.586Z,6.03
2023-04-26T12:13:49.103Z,8.10
2023-04-26T12:15:13.720Z,9.80
2023-04-26T12:16:36.600Z,8.98
2023-04-26T12:18:00.301Z,9.18
2023-04-26T12:19:26.725Z,4.75
2023-04-26T12:20:47.708Z,5.30
2023-04-26T12:22:09.208Z,4.35
2023-04-26T12:23:40.448Z,6.22
2023-04-26T12:25:08.939Z,6.55
2023-04-26T12:26:45.112Z,4.43
2023-04-26T12:28:10.121Z,4.70
2023-04-26T12:29:33.026Z,9.20
2023-04-26T12:30:53.679Z,7.63
2023-04-26T12:32:14.721Z,8.32
2023-04-26T12:33:35.929Z,9.23
2023-04-26T12:34:56.775Z,5.57
2023-04-26T12:36:18.010Z,9.07
2023-04-26T12:37:39.461Z,7.30
2023-04-26T12:39:00.338Z,8.38
2023-04-26T12:40:21.220Z,5.65
2023-04-26T12:41:42.806Z,8.57
2023-04-26T12:43:03.437Z,7.38
2023-04-26T12:44:24.521Z,7.25
2023-04-26T12:45:46.956Z,5.70
2023-04-26T12:47:08.275Z,4.47
2023-04-26T12:48:29.218Z,8.15
2023-04-26T12:49:50.136Z,5.95
2023-04-26T12:51:11.220Z,6.63
2023-04-26T12:52:32.459Z,9.20
2023-04-26T12:53:53.782Z,8.98
2023-04-26T12:55:17.398Z,8.85
2023-04-26T12:56:39.442Z,9.68
2023-04-26T12:58:00.220Z,6.80
2023-04-26T12:59:20.852Z,5.68
2023-04-26T13:00:43.884Z,7.82
2023-04-26T13:02:07.019Z,12.90
2023-04-26T13:03:27.826Z,5.22
2023-04-26T13:04:49.177Z,4.85
2023-04-26T13:06:10.336Z,4.88
2023-04-26T13:07:31.680Z,9.52
2023-04-26T13:08:52.624Z,5.38
2023-04-26T13:10:22.593Z,5.47
2023-04-26T13:11:44.458Z,6.90
2023-04-26T13:14:28.858Z,5.05
2023-04-26T13:15:49.996Z,4.10
2023-04-26T13:17:12.117Z,6.85
2023-04-26T13:18:32.961Z,5.75
2023-04-26T13:19:56.418Z,7.38
2023-04-26T13:21:17.353Z,9.48
2023-04-26T13:22:37.878Z,8.13
2023-04-26T13:23:58.892Z,6.05
2023-04-26T13:25:19.840Z,5.40
2023-04-26T13:26:40.616Z,6.68
2023-04-26T13:28:01.455Z,8.20
2023-04-26T13:29:22.267Z,4.28
2023-04-26T13:30:43.408Z,6.68
2023-04-26T13:32:04.614Z,5.60
2023-04-26T13:33:26.683Z,6.97
2023-04-26T13:34:47.671Z,7.85
2023-04-26T13:36:08.830Z,8.25
2023-04-26T13:37:29.564Z,7.75
2023-04-26T13:38:50.529Z,7.82
2023-04-26T13:40:12.694Z,5.47
2023-04-26T13:41:33.944Z,6.30
2023-04-26T13:44:15.523Z,9.77
2023-04-26T13:45:36.629Z,8.07
2023-04-26T13:46:57.744Z,5.03
2023-04-26T13:48:18.817Z,7.20
2023-04-26T13:49:40.990Z,3.80
2023-04-26T13:51:01.835Z,8.13
2023-04-26T13:52:22.832Z,9.55
2023-04-26T13:53:43.631Z,5.40
2023-04-26T13:55:04.944Z,10.10
2023-04-26T13:56:28.493Z,5.60
2023-04-26T13:57:49.384Z,11.73
2023-04-26T13:59:10.370Z,7.05
2023-04-26T14:00:31.139Z,5.72
2023-04-26T14:01:54.254Z,4.50
2023-04-26T14:03:16.189Z,8.48
2023-04-26T14:04:37.186Z,5.75
2023-04-26T14:05:59.376Z,6.07
2023-04-26T14:07:20.166Z,5.15
2023-04-26T14:08:41.106Z,8.38
2023-04-26T14:10:02.139Z,6.80
2023-04-26T14:11:23.808Z,4.82
2023-04-26T14:14:05.237Z,2.45
2023-04-26T14:15:28.651Z,3.67
2023-04-26T14:16:49.500Z,6.40
2023-04-26T14:18:10.347Z,9.32
2023-04-26T14:19:31.485Z,7.45
2023-04-26T14:20:52.109Z,10.13
2023-04-26T14:22:14.670Z,9.63
2023-04-26T14:23:35.304Z,10.88
2023-04-26T14:24:56.721Z,13.48
2023-04-26T14:26:19.354Z,7.00
2023-04-26T14:27:40.157Z,6.43
2023-04-26T14:29:00.648Z,11.85
2023-04-26T14:30:22.167Z,8.38
2023-04-26T14:31:43.268Z,8.80
2023-04-26T14:33:04.401Z,9.93
2023-04-26T14:34:28.103Z,6.53
2023-04-26T14:35:48.812Z,4.05
2023-04-26T14:37:09.478Z,9.73
2023-04-26T14:38:31.769Z,7.32
2023-04-26T14:39:52.693Z,8.68
2023-04-26T14:41:18.201Z,5.38
2023-04-26T14:42:38.758Z,5.43
2023-04-26T14:43:59.804Z,9.60
2023-04-26T14:45:23.666Z,4.88
2023-04-26T14:46:48.928Z,9.35
2023-04-26T14:48:10.294Z,9.82
2023-04-26T14:49:30.787Z,10.32
2023-04-26T14:50:58.582Z,7.40
2023-04-26T14:52:21.353Z,9.65
2023-04-26T14:53:43.656Z,6.63
2023-04-26T14:55:05.953Z,6.43
2023-04-26T14:56:26.586Z,5.97
2023-04-26T14:57:47.989Z,8.52
2023-04-26T14:59:09.018Z,9.75
2023-04-26T15:00:30.004Z,6.95
2023-04-26T15:01:52.610Z,5.18
2023-04-26T15:03:13.876Z,7.22
2023-04-26T15:04:34.868Z,10.77
2023-04-26T15:05:55.866Z,8.73
2023-04-26T15:07:30.853Z,9.10
2023-04-26T15:08:53.928Z,7.60
2023-04-26T15:10:15.123Z,8.00
2023-04-26T15:11:35.970Z,8.65
2023-04-26T15:12:56.918Z,6.65
2023-04-26T15:14:17.776Z,9.48
2023-04-26T15:15:38.716Z,10.38
2023-04-26T15:16:59.835Z,4.45
2023-04-26T15:18:23.897Z,5.22
2023-04-26T15:19:44.713Z,5.20
2023-04-26T15:21:05.611Z,7.80
2023-04-26T15:22:29.340Z,6.53
2023-04-26T15:23:50.102Z,5.43
2023-04-26T15:25:13.007Z,8.80
2023-04-26T15:26:33.542Z,8.88
2023-04-26T15:27:54.497Z,7.25
2023-04-26T15:29:15.467Z,6.47
2023-04-26T15:30:36.328Z,6.13
2023-04-26T15:31:57.420Z,11.73
2023-04-26T15:33:18.395Z,6.13
2023-04-26T15:34:41.489Z,5.05
2023-04-26T15:36:02.243Z,7.57
2023-04-26T15:37:23.301Z,6.35
2023-04-26T15:40:07.097Z,7.47
2023-04-26T15:41:29.090Z,6.93
2023-04-26T15:42:50.476Z,8.48
2023-04-26T15:44:11.665Z,11.63
2023-04-26T15:45:32.110Z,9.45
2023-04-26T15:46:53.053Z,9.63
2023-04-26T15:48:14.051Z,5.97
2023-04-26T15:49:34.914Z,10.68
2023-04-26T15:50:56.184Z,6.95
2023-04-26T15:52:16.980Z,6.25
2023-04-26T15:53:43.326Z,10.15
2023-04-26T15:55:07.064Z,6.68
2023-04-26T15:56:31.964Z,10.57
2023-04-26T15:57:55.542Z,6.50
2023-04-26T15:59:16.349Z,8.82
2023-04-26T16:00:37.135Z,7.22
2023-04-26T16:01:58.106Z,6.95
2023-04-26T16:03:19.281Z,6.45
2023-04-26T16:04:40.505Z,10.18
2023-04-26T16:06:01.780Z,6.35
2023-04-26T16:07:24.789Z,5.90
2023-04-26T16:08:45.501Z,10.60
2023-04-26T16:10:09.014Z,10.48
2023-04-26T16:11:31.861Z,5.60
2023-04-26T16:12:52.787Z,7.32
2023-04-26T16:14:13.369Z,7.32
2023-04-26T16:15:34.728Z,6.10
2023-04-26T16:16:55.881Z,7.68
2023-04-26T16:18:16.778Z,8.05
2023-04-26T16:19:37.705Z,6.40
2023-04-26T16:21:04.616Z,10.20
2023-04-26T16:22:28.879Z,5.53
2023-04-26T16:23:49.879Z,7.22
2023-04-26T16:25:10.835Z,8.25
2023-04-26T16:26:33.037Z,5.13
2023-04-26T16:27:56.234Z,8.98
2023-04-26T16:29:17.150Z,5.43
2023-04-26T16:30:38.076Z,10.75
2023-04-26T16:31:58.825Z,8.05
2023-04-26T16:33:22.728Z,6.00
2023-04-26T16:34:44.297Z,7.57
2023-04-26T16:36:06.169Z,9.05
2023-04-26T16:37:26.752Z,10.05
2023-04-26T16:38:49.058Z,12.93
2023-04-26T16:40:11.074Z,9.93
2023-04-26T16:42:54.118Z,13.77
2023-04-26T16:45:36.621Z,6.18
2023-04-26T16:46:59.113Z,8.45
2023-04-26T16:48:19.915Z,6.65
2023-04-26T16:49:40.586Z,13.27
2023-04-26T16:51:04.667Z,11.23
2023-04-26T16:52:27.440Z,8.20
2023-04-26T16:53:48.433Z,6.97
2023-04-26T16:55:09.842Z,8.02
2023-04-26T16:56:32.069Z,5.13
2023-04-26T16:57:53.206Z,12.85
2023-04-26T16:59:14.401Z,10.93
2023-04-26T17:00:36.614Z,4.68
2023-04-26T17:01:57.405Z,7.43
2023-04-26T17:03:18.533Z,11.27
2023-04-26T17:04:39.901Z,9.85
2023-04-26T17:06:00.768Z,8.55
2023-04-26T17:07:21.345Z,9.13
2023-04-26T17:08:42.153Z,7.85
2023-04-26T17:10:03.205Z,6.63
2023-04-26T17:11:25.539Z,8.43
2023-04-26T17:12:47.750Z,10.65
2023-04-26T17:14:08.318Z,9.27
2023-04-26T17:15:29.388Z,7.05
2023-04-26T17:16:50.395Z,9.02
2023-04-26T17:18:11.047Z,7.85
2023-04-26T17:19:31.903Z,10.13
2023-04-26T17:20:53.234Z,5.50
2023-04-26T17:22:14.025Z,8.20
2023-04-26T17:23:35.163Z,10.35
2023-04-26T17:24:58.842Z,10.88
2023-04-26T17:26:19.641Z,8.68
2023-04-26T17:27:40.090Z,11.00
2023-04-26T17:29:02.237Z,7.72
2023-04-26T17:30:23.535Z,9.82
2023-04-26T17:33:05.600Z,8.38
2023-04-26T17:34:26.382Z,10.48
2023-04-26T17:35:47.552Z,4.78
2023-04-26T17:37:08.417Z,7.30
2023-04-26T17:38:29.345Z,4.70
2023-04-26T17:39:50.392Z,9.82
2023-04-26T17:41:12.105Z,8.90
2023-04-26T17:42:32.818Z,11.55
2023-04-26T17:43:53.673Z,6.72
2023-04-26T17:45:16.308Z,8.25
2023-04-26T17:46:36.951Z,9.23
2023-04-26T17:47:57.818Z,8.70
2023-04-26T17:49:18.786Z,8.93
2023-04-26T17:50:40.261Z,10.13
2023-04-26T17:52:00.914Z,9.50
2023-04-26T17:53:22.085Z,4.82
2023-04-26T17:54:43.180Z,8.82
2023-04-26T17:56:04.466Z,8.73
2023-04-26T17:57:25.640Z,7.45
2023-04-26T17:58:46.542Z,6.07
2023-04-26T18:00:08.902Z,9.23
2023-04-26T18:01:30.863Z,7.28
2023-04-26T18:02:51.873Z,7.00
2023-04-26T18:04:12.755Z,10.15
2023-04-26T18:05:33.779Z,9.43
2023-04-26T18:06:54.580Z,8.18
2023-04-26T18:08:15.399Z,5.70
2023-04-26T18:09:36.285Z,10.68
2023-04-26T18:10:58.368Z,7.07
2023-04-26T18:12:19.032Z,7.43
2023-04-26T18:13:39.963Z,10.98